Terminal Aerodrome Forecast
Issued by NWS Wichita, KS

Home | Current Version | Previous Version | Text Only | Print | Product List | Glossary On
Versions: 1 2 3 4 5 6 7 8 9 10 11 12 13 14 15 16
000
FTUS43 KICT 231140
TAFICT
TAF
KICT 231140Z 2312/2412 32003KT P6SM SKC
     FM231800 19005KT P6SM SKC
     FM232000 18009KT P6SM SKC
     FM240900 18013KT P6SM BKN300 WS015/20039KT=

USA.gov is the U.S. government's official web portal to all federal, state and local government web resources and services.